createdAt,value
2017-11-12T00:00:06.609Z,86.00
2017-11-12T00:02:32.920Z,85.40
2017-11-12T00:05:14.772Z,85.70
2017-11-12T00:07:40.968Z,85.70
2017-11-12T00:10:07.149Z,86.20
2017-11-12T00:12:33.673Z,85.90
2017-11-12T00:14:59.854Z,85.90
2017-11-12T00:17:26.054Z,86.60
2017-11-12T00:19:52.295Z,87.10
2017-11-12T00:22:18.504Z,87.00
2017-11-12T00:24:45.463Z,86.50
2017-11-12T00:27:12.390Z,86.40
2017-11-12T00:29:38.623Z,86.40
2017-11-12T00:32:05.653Z,86.60
2017-11-12T00:34:32.599Z,86.90
2017-11-12T00:36:58.800Z,86.30
2017-11-12T00:39:25.050Z,87.10
2017-11-12T00:41:52.082Z,86.40
2017-11-12T00:44:18.298Z,85.90
2017-11-12T00:46:44.472Z,86.10
2017-11-12T00:49:10.715Z,86.50
2017-11-12T00:51:37.703Z,86.90
2017-11-12T00:54:04.657Z,85.90
2017-11-12T00:56:32.163Z,86.00
2017-11-12T00:58:59.480Z,85.70
2017-11-12T01:01:25.730Z,85.90
2017-11-12T01:03:51.977Z,85.80
2017-11-12T01:06:18.957Z,86.50
2017-11-12T01:08:45.309Z,86.40
2017-11-12T01:11:14.151Z,86.10
2017-11-12T01:13:41.118Z,87.20
2017-11-12T01:16:07.403Z,87.20
2017-11-12T01:18:33.598Z,87.00
2017-11-12T01:21:00.813Z,87.40
2017-11-12T01:23:27.740Z,88.00
2017-11-12T01:25:53.963Z,87.40
2017-11-12T01:28:20.181Z,86.90
2017-11-12T01:30:46.411Z,87.80
2017-11-12T01:33:13.628Z,88.00
2017-11-12T01:35:39.812Z,87.40
2017-11-12T01:38:06.063Z,87.00
2017-11-12T01:40:32.643Z,86.80
2017-11-12T01:42:59.000Z,87.40
2017-11-12T01:45:26.400Z,87.50
2017-11-12T01:47:52.610Z,87.90
2017-11-12T01:50:19.570Z,87.80
2017-11-12T01:52:45.783Z,87.60
2017-11-12T01:55:12.719Z,88.30
2017-11-12T01:57:39.835Z,87.50
2017-11-12T02:00:06.082Z,88.00
2017-11-12T02:02:32.329Z,87.80
2017-11-12T02:05:00.332Z,86.90
2017-11-12T02:07:26.640Z,87.10
2017-11-12T02:09:52.844Z,87.60
2017-11-12T02:12:19.102Z,87.90
2017-11-12T02:14:46.286Z,87.90
2017-11-12T02:17:12.604Z,88.00
2017-11-12T02:19:39.710Z,87.80
2017-11-12T02:22:05.927Z,88.00
2017-11-12T02:24:32.769Z,87.80
2017-11-12T02:26:59.988Z,87.60
2017-11-12T02:29:26.334Z,86.70
2017-11-12T02:31:52.665Z,87.30
2017-11-12T02:34:21.123Z,87.40
2017-11-12T02:36:47.363Z,87.30
2017-11-12T02:39:13.648Z,87.20
2017-11-12T02:41:40.710Z,87.30
2017-11-12T02:44:10.617Z,86.70
2017-11-12T02:46:37.636Z,87.30
2017-11-12T02:49:03.926Z,86.70
2017-11-12T02:51:30.173Z,87.30
2017-11-12T02:53:57.320Z,87.30
2017-11-12T02:56:24.741Z,87.20
2017-11-12T02:58:51.671Z,87.30
2017-11-12T03:01:18.616Z,87.20
2017-11-12T03:03:45.663Z,86.60
2017-11-12T03:06:12.819Z,87.20
2017-11-12T03:08:39.793Z,87.20
2017-11-12T03:11:06.972Z,87.10
2017-11-12T03:13:33.932Z,87.10
2017-11-12T03:16:00.219Z,87.50
2017-11-12T03:18:26.398Z,87.60
2017-11-12T03:20:52.631Z,87.70
2017-11-12T03:23:19.700Z,87.80
2017-11-12T03:25:47.624Z,87.80
2017-11-12T03:28:14.224Z,87.10
2017-11-12T03:30:40.584Z,87.90
2017-11-12T03:33:06.826Z,88.30
2017-11-12T03:35:33.028Z,87.80
2017-11-12T03:37:59.268Z,87.80
2017-11-12T03:40:26.240Z,87.70
2017-11-12T03:42:53.448Z,87.10
2017-11-12T03:45:19.720Z,87.60
2017-11-12T03:47:47.684Z,87.90
2017-11-12T03:50:14.752Z,87.80
2017-11-12T03:52:42.378Z,87.50
2017-11-12T03:55:08.720Z,87.20
2017-11-12T03:57:34.954Z,87.70
2017-11-12T04:00:02.160Z,87.20
2017-11-12T04:02:29.931Z,87.20
2017-11-12T04:04:56.176Z,87.30
2017-11-12T04:07:22.405Z,86.90
2017-11-12T04:09:49.542Z,86.40
2017-11-12T04:12:15.797Z,86.80
2017-11-12T04:14:43.718Z,86.60
2017-11-12T04:17:10.730Z,86.90
2017-11-12T04:19:37.949Z,86.90
2017-11-12T04:22:04.134Z,86.90
2017-11-12T04:24:32.807Z,86.80
2017-11-12T04:26:58.998Z,86.80
2017-11-12T04:29:25.212Z,86.90
2017-11-12T04:31:52.148Z,86.80
2017-11-12T04:34:19.071Z,86.80
2017-11-12T04:36:46.219Z,86.80
2017-11-12T04:39:14.380Z,86.20
2017-11-12T04:41:40.845Z,86.70
2017-11-12T04:44:07.800Z,86.70
2017-11-12T04:46:36.229Z,86.70
2017-11-12T04:49:03.487Z,86.70
2017-11-12T04:51:30.670Z,87.30
2017-11-12T04:53:57.783Z,87.20
2017-11-12T04:56:24.080Z,87.00
2017-11-12T04:58:50.317Z,88.00
2017-11-12T05:01:17.477Z,87.60
2017-11-12T05:03:43.672Z,88.20
2017-11-12T05:06:10.653Z,88.10
2017-11-12T05:08:37.621Z,88.00
2017-11-12T05:11:04.351Z,87.50
2017-11-12T05:13:30.695Z,86.40
2017-11-12T05:15:58.803Z,86.30
2017-11-12T05:18:25.747Z,86.70
2017-11-12T05:20:53.835Z,86.80
2017-11-12T05:23:20.857Z,86.70
2017-11-12T05:25:47.915Z,86.20
2017-11-12T05:28:14.859Z,86.70
2017-11-12T05:30:41.854Z,87.50
2017-11-12T05:33:09.589Z,87.50
2017-11-12T05:35:37.656Z,87.50
2017-11-12T05:38:05.424Z,87.50
2017-11-12T05:40:33.127Z,87.10
2017-11-12T05:42:59.341Z,86.90
2017-11-12T05:45:27.558Z,87.30
2017-11-12T05:47:55.595Z,87.00
2017-11-12T05:50:21.779Z,87.40
2017-11-12T05:52:48.744Z,87.80
2017-11-12T05:55:15.705Z,87.40
2017-11-12T05:57:41.973Z,87.50
2017-11-12T06:00:08.196Z,86.20
2017-11-12T06:02:35.459Z,86.20
2017-11-12T06:05:02.889Z,86.20
2017-11-12T06:07:30.126Z,86.20
2017-11-12T06:09:57.338Z,86.60
2017-11-12T06:12:23.684Z,86.10
2017-11-12T06:14:50.641Z,86.60
2017-11-12T06:17:17.678Z,90.30
2017-11-12T06:19:45.711Z,87.50
2017-11-12T06:22:11.993Z,86.10
2017-11-12T06:24:38.211Z,85.50
2017-11-12T06:27:06.164Z,86.10
2017-11-12T06:29:33.177Z,86.30
2017-11-12T06:32:00.905Z,86.80
2017-11-12T06:34:27.121Z,86.30
2017-11-12T06:36:54.766Z,86.70
2017-11-12T06:39:22.030Z,86.20
2017-11-12T06:41:48.990Z,86.80
2017-11-12T06:44:15.984Z,86.70
2017-11-12T06:46:42.642Z,86.20
2017-11-12T06:49:09.076Z,87.20
2017-11-12T06:51:38.534Z,88.00
2017-11-12T06:54:05.807Z,87.40
2017-11-12T06:56:32.832Z,87.40
2017-11-12T06:58:58.993Z,87.80
2017-11-12T07:01:25.808Z,87.80
2017-11-12T07:03:52.073Z,87.90
2017-11-12T07:06:18.303Z,87.90
2017-11-12T07:08:45.414Z,87.30
2017-11-12T07:11:12.459Z,87.10
2017-11-12T07:13:38.658Z,87.30
2017-11-12T07:16:05.690Z,87.80
2017-11-12T07:18:32.105Z,87.70
2017-11-12T07:20:58.545Z,87.50
2017-11-12T07:23:25.207Z,88.00
2017-11-12T07:25:53.002Z,87.50
2017-11-12T07:28:21.633Z,87.50
2017-11-12T07:30:47.835Z,87.40
2017-11-12T07:33:14.121Z,87.30
2017-11-12T07:35:41.978Z,87.70
2017-11-12T07:38:09.834Z,87.40
2017-11-12T07:40:36.032Z,87.30
2017-11-12T07:43:03.246Z,86.70
2017-11-12T07:45:31.147Z,87.00
2017-11-12T07:47:57.372Z,86.80
2017-11-12T07:50:23.967Z,86.40
2017-11-12T07:52:50.912Z,86.90
2017-11-12T07:55:18.893Z,87.00
2017-11-12T07:57:45.927Z,86.90
2017-11-12T08:00:13.253Z,86.90
2017-11-12T08:02:40.393Z,87.10
2017-11-12T08:05:08.101Z,87.30
2017-11-12T08:07:35.036Z,87.30
2017-11-12T08:10:01.419Z,87.10
2017-11-12T08:12:29.028Z,87.10
2017-11-12T08:14:56.115Z,87.60
2017-11-12T08:17:22.299Z,87.50
2017-11-12T08:19:48.522Z,87.50
2017-11-12T08:22:15.610Z,87.20
2017-11-12T08:24:44.383Z,88.10
2017-11-12T08:27:10.972Z,87.80
2017-11-12T08:29:37.211Z,87.70
2017-11-12T08:32:03.819Z,87.30
2017-11-12T08:34:30.036Z,87.40
2017-11-12T08:36:56.240Z,87.60
2017-11-12T08:39:22.533Z,87.60
2017-11-12T08:41:49.558Z,88.40
2017-11-12T08:44:17.252Z,88.30
2017-11-12T08:46:45.982Z,89.00
2017-11-12T08:49:13.027Z,89.40
2017-11-12T08:51:41.505Z,89.10
2017-11-12T08:54:09.840Z,89.00
2017-11-12T08:56:36.140Z,88.50
2017-11-12T08:59:03.219Z,89.10
2017-11-12T09:01:30.960Z,86.70
2017-11-12T09:03:57.238Z,87.30
2017-11-12T09:06:23.489Z,86.50
2017-11-12T09:08:50.469Z,86.90
2017-11-12T09:11:16.671Z,86.40
2017-11-12T09:13:43.649Z,88.10
2017-11-12T09:16:09.879Z,87.60
2017-11-12T09:18:36.363Z,88.10
2017-11-12T09:21:04.144Z,87.20
2017-11-12T09:23:31.883Z,87.30
2017-11-12T09:25:58.110Z,87.20
2017-11-12T09:28:25.306Z,87.40
2017-11-12T09:30:51.705Z,87.60
2017-11-12T09:33:17.961Z,87.80
2017-11-12T09:35:44.943Z,88.30
2017-11-12T09:38:11.209Z,88.30
2017-11-12T09:40:37.465Z,88.20
2017-11-12T09:43:04.484Z,87.60
2017-11-12T09:45:31.746Z,87.20
2017-11-12T09:47:59.514Z,86.80
2017-11-12T09:50:25.893Z,86.50
2017-11-12T09:52:53.128Z,86.60
2017-11-12T09:55:19.370Z,86.50
2017-11-12T09:57:45.878Z,86.50
2017-11-12T10:00:14.098Z,86.30
2017-11-12T10:02:41.235Z,86.20
2017-11-12T10:14:52.491Z,85.10
2017-11-12T10:17:18.792Z,84.80
2017-11-12T10:19:46.507Z,84.80
2017-11-12T10:22:12.701Z,84.10
2017-11-12T10:24:39.714Z,84.30
2017-11-12T10:27:08.538Z,84.70
2017-11-12T10:29:34.750Z,82.80
2017-11-12T10:32:02.633Z,84.20
2017-11-12T10:34:28.843Z,82.50
2017-11-12T10:36:55.807Z,82.90
2017-11-12T10:39:22.064Z,82.90
2017-11-12T10:41:48.416Z,82.60
2017-11-12T10:44:15.648Z,83.10
2017-11-12T10:46:41.874Z,82.10
2017-11-12T10:49:08.887Z,82.60
2017-11-12T10:51:35.890Z,82.50
2017-11-12T10:54:02.212Z,82.30
2017-11-12T10:56:29.191Z,82.80
2017-11-12T10:58:56.467Z,83.10
2017-11-12T11:01:22.690Z,82.60
2017-11-12T11:03:49.666Z,83.10
2017-11-12T11:06:16.262Z,82.80
2017-11-12T11:08:43.518Z,83.60
2017-11-12T11:11:10.511Z,82.90
2017-11-12T11:13:40.361Z,82.10
2017-11-12T11:16:06.615Z,82.40
2017-11-12T11:18:33.582Z,83.30
2017-11-12T11:20:59.835Z,83.30
2017-11-12T11:23:26.836Z,82.90
2017-11-12T11:25:53.818Z,83.80
2017-11-12T11:28:20.093Z,83.10
2017-11-12T11:30:46.315Z,82.70
2017-11-12T11:33:12.925Z,83.10
2017-11-12T11:35:39.953Z,84.80
2017-11-12T11:38:07.464Z,85.10
2017-11-12T11:40:33.907Z,82.70
2017-11-12T11:43:00.060Z,83.10
2017-11-12T11:45:27.774Z,82.70
2017-11-12T11:47:54.741Z,82.70
2017-11-12T11:50:20.973Z,83.30
2017-11-12T11:52:47.990Z,83.80
2017-11-12T11:55:14.270Z,83.60
2017-11-12T11:57:41.310Z,84.20
2017-11-12T12:00:08.288Z,83.60
2017-11-12T12:02:34.498Z,83.00
2017-11-12T12:05:00.791Z,84.00
2017-11-12T12:07:27.045Z,83.30
2017-11-12T12:09:53.996Z,84.30
2017-11-12T12:12:20.947Z,84.00
2017-11-12T12:14:47.179Z,83.40
2017-11-12T12:17:13.397Z,84.10
2017-11-12T12:19:41.288Z,85.10
2017-11-12T12:22:07.581Z,84.50
2017-11-12T12:24:33.826Z,83.60
2017-11-12T12:27:00.846Z,84.00
2017-11-12T12:29:27.040Z,83.60
2017-11-12T12:31:53.260Z,84.20
2017-11-12T12:34:20.428Z,83.50
2017-11-12T12:36:46.996Z,84.00
2017-11-12T12:39:13.250Z,84.50
2017-11-12T12:41:40.619Z,83.00
2017-11-12T12:44:07.944Z,83.00
2017-11-12T12:46:34.241Z,82.80
2017-11-12T12:49:00.724Z,82.80
2017-11-12T12:51:27.739Z,83.30
2017-11-12T12:53:56.211Z,82.50
2017-11-12T12:56:22.544Z,82.50
2017-11-12T12:58:48.759Z,83.30
2017-11-12T13:01:16.003Z,83.30
2017-11-12T13:03:42.243Z,82.90
2017-11-12T13:06:10.216Z,91.70
2017-11-12T13:08:36.444Z,83.20
2017-11-12T13:11:02.812Z,81.50
2017-11-12T13:13:29.026Z,82.50
2017-11-12T13:15:56.249Z,80.80
2017-11-12T13:18:22.534Z,81.00
2017-11-12T13:23:19.048Z,81.10
2017-11-12T13:25:45.372Z,81.20
2017-11-12T13:28:12.400Z,81.70
2017-11-12T13:30:40.131Z,80.70
2017-11-12T13:33:07.120Z,81.70
2017-11-12T13:35:34.904Z,81.60
2017-11-12T13:38:01.238Z,81.20
2017-11-12T13:40:29.415Z,81.20
2017-11-12T13:42:55.760Z,81.80
2017-11-12T13:45:22.883Z,81.70
2017-11-12T13:47:50.011Z,80.90
2017-11-12T13:50:16.245Z,83.80
2017-11-12T13:52:43.420Z,80.60
2017-11-12T13:55:09.636Z,81.00
2017-11-12T13:57:36.704Z,80.90
2017-11-12T14:00:03.916Z,79.40
2017-11-12T14:02:30.135Z,79.30
2017-11-12T14:04:59.014Z,81.30
2017-11-12T14:07:26.759Z,81.70
2017-11-12T14:09:52.964Z,81.60
2017-11-12T14:12:19.140Z,81.20
2017-11-12T14:14:47.073Z,82.10
2017-11-12T14:17:13.246Z,82.20
2017-11-12T14:19:40.292Z,82.50
2017-11-12T14:22:08.208Z,82.50
2017-11-12T14:24:35.308Z,82.70
2017-11-12T14:27:02.298Z,83.30
2017-11-12T14:29:31.234Z,83.30
2017-11-12T14:31:59.074Z,83.10
2017-11-12T14:34:25.825Z,83.20
2017-11-12T14:36:52.021Z,83.60
2017-11-12T14:39:18.247Z,83.50
2017-11-12T14:41:45.464Z,82.90
2017-11-12T14:44:12.446Z,83.60
2017-11-12T14:46:40.560Z,83.20
2017-11-12T14:49:08.345Z,83.90
2017-11-12T14:51:35.686Z,83.00
2017-11-12T14:54:01.912Z,82.50
2017-11-12T14:56:30.135Z,82.90
2017-11-12T14:58:56.818Z,83.30
2017-11-12T15:01:23.398Z,83.10
2017-11-12T15:03:50.729Z,82.80
2017-11-12T15:06:18.729Z,83.80
2017-11-12T15:08:44.956Z,83.40
2017-11-12T15:11:11.214Z,83.90
2017-11-12T15:13:37.524Z,83.50
2017-11-12T15:16:03.956Z,84.20
2017-11-12T15:18:30.220Z,84.60
2017-11-12T15:20:57.004Z,84.60
2017-11-12T15:23:23.977Z,85.10
2017-11-12T15:25:50.311Z,85.10
2017-11-12T15:28:16.564Z,85.00
2017-11-12T15:30:43.511Z,84.80
2017-11-12T15:33:09.733Z,84.30
2017-11-12T15:35:50.904Z,84.50
2017-11-12T15:38:17.172Z,86.00
2017-11-12T15:40:44.334Z,86.30
2017-11-12T15:43:11.360Z,86.30
2017-11-12T15:45:37.661Z,86.30
2017-11-12T15:48:03.904Z,85.60
2017-11-12T15:50:30.167Z,85.90
2017-11-12T15:52:56.590Z,86.00
2017-11-12T15:55:22.871Z,86.00
2017-11-12T15:57:49.121Z,86.10
2017-11-12T16:00:17.507Z,86.00
2017-11-12T16:02:45.092Z,86.00
2017-11-12T16:05:13.381Z,85.90
2017-11-12T16:07:39.669Z,86.50
2017-11-12T16:10:05.924Z,85.80
2017-11-12T16:12:32.160Z,86.80
2017-11-12T16:14:58.752Z,86.50
2017-11-12T16:17:24.978Z,87.10
2017-11-12T16:19:51.720Z,86.40
2017-11-12T16:22:17.943Z,86.80
2017-11-12T16:24:46.299Z,86.90
2017-11-12T16:27:14.296Z,86.60
2017-11-12T16:29:40.530Z,86.70
2017-11-12T16:32:06.865Z,86.60
2017-11-12T16:34:33.938Z,87.10
2017-11-12T16:37:00.248Z,87.40
2017-11-12T16:39:26.640Z,87.10
2017-11-12T16:41:53.277Z,86.00
2017-11-12T16:44:20.292Z,85.30
2017-11-12T16:46:46.582Z,85.30
2017-11-12T16:49:14.128Z,83.30
2017-11-12T16:51:41.627Z,83.40
2017-11-12T16:54:07.990Z,83.50
2017-11-12T16:56:35.873Z,84.20
2017-11-12T16:59:04.203Z,84.20
2017-11-12T17:01:31.381Z,84.20
2017-11-12T17:03:58.494Z,83.00
2017-11-12T17:06:24.811Z,82.50
2017-11-12T17:08:53.245Z,83.00
2017-11-12T17:11:19.486Z,82.50
2017-11-12T17:13:47.496Z,83.60
2017-11-12T17:16:14.518Z,83.70
2017-11-12T17:18:43.280Z,83.80
2017-11-12T17:21:10.214Z,83.70
2017-11-12T17:23:36.454Z,81.40
2017-11-12T17:26:03.530Z,80.20
2017-11-12T17:28:30.529Z,80.20
2017-11-12T17:30:56.777Z,80.10
2017-11-12T17:33:23.035Z,80.20
2017-11-12T17:35:52.229Z,80.60
2017-11-12T17:38:19.502Z,80.10
2017-11-12T17:40:46.097Z,80.10
2017-11-12T17:43:12.314Z,80.30
2017-11-12T17:45:38.669Z,80.20
2017-11-12T17:48:05.626Z,80.40
2017-11-12T17:50:32.680Z,80.00
2017-11-12T17:53:00.122Z,80.40
2017-11-12T17:55:27.123Z,80.00
2017-11-12T17:57:53.480Z,80.00
2017-11-12T18:00:19.755Z,79.50
2017-11-12T18:02:53.247Z,79.30
2017-11-12T18:05:20.540Z,79.60
2017-11-12T18:07:46.786Z,79.80
2017-11-12T18:20:05.412Z,80.00
2017-11-12T18:22:31.704Z,80.60
2017-11-12T18:34:44.456Z,81.20
2017-11-12T18:37:10.793Z,81.70
2017-11-12T18:39:38.271Z,81.60
2017-11-12T18:42:04.710Z,82.30
2017-11-12T18:54:17.778Z,82.90
2017-11-12T18:59:51.625Z,83.30
2017-11-12T19:02:25.662Z,83.60
2017-11-12T19:05:01.980Z,83.50
2017-11-12T19:07:33.077Z,84.00
2017-11-12T19:10:00.998Z,83.30
2017-11-12T19:12:28.455Z,83.90
2017-11-12T19:14:59.669Z,84.30
2017-11-12T19:17:27.423Z,84.90
2017-11-12T19:20:03.922Z,84.50
2017-11-12T19:22:33.228Z,85.00
2017-11-12T19:25:00.280Z,84.90
2017-11-12T19:27:29.727Z,84.60
2017-11-12T19:30:02.976Z,85.00
2017-11-12T19:32:30.582Z,84.10
2017-11-12T19:34:59.245Z,83.80
2017-11-12T19:37:28.056Z,84.20
2017-11-12T19:39:57.764Z,84.20
2017-11-12T19:42:26.289Z,83.50
2017-11-12T19:45:00.576Z,83.80
2017-11-12T19:47:29.072Z,83.00
2017-11-12T19:49:57.048Z,84.10
2017-11-12T20:02:11.194Z,84.80
2017-11-12T20:04:39.108Z,85.00
2017-11-12T20:07:07.056Z,84.60
2017-11-12T20:09:34.533Z,84.70
2017-11-12T20:21:48.183Z,83.10
2017-11-12T20:37:14.991Z,83.50
2017-11-12T20:39:45.531Z,83.60
2017-11-12T20:42:20.216Z,82.90
2017-11-12T20:44:47.094Z,82.80
2017-11-12T20:47:14.724Z,82.80
2017-11-12T20:49:42.798Z,82.50
2017-11-12T20:52:12.599Z,82.40
2017-11-12T20:54:39.397Z,82.70
2017-11-12T20:57:09.336Z,82.50
2017-11-12T20:59:37.567Z,83.30
2017-11-12T21:02:04.347Z,82.90
2017-11-12T21:04:32.433Z,83.00
2017-11-12T21:06:59.053Z,83.10
2017-11-12T21:19:32.065Z,82.80
2017-11-12T21:21:59.990Z,82.90
2017-11-12T21:24:29.205Z,83.40
2017-11-12T21:29:58.614Z,82.40
2017-11-12T21:35:01.786Z,82.50
2017-11-12T21:37:29.077Z,82.50
2017-11-12T21:39:56.104Z,83.10
2017-11-12T21:42:22.897Z,82.60
2017-11-12T21:44:50.093Z,82.40
2017-11-12T21:47:24.282Z,82.10
2017-11-12T21:49:53.912Z,82.50
2017-11-12T21:52:22.741Z,82.00
2017-11-12T21:54:50.672Z,81.50
2017-11-12T21:57:18.300Z,81.80
2017-11-12T21:59:44.868Z,81.60
2017-11-12T22:02:12.856Z,81.50
2017-11-12T22:04:39.261Z,81.20
2017-11-12T22:07:05.541Z,81.00
2017-11-12T22:09:35.516Z,81.90
2017-11-12T22:12:01.876Z,80.80
2017-11-12T22:14:28.119Z,81.10
2017-11-12T22:16:55.466Z,81.80
2017-11-12T22:19:23.296Z,81.60
2017-11-12T22:21:49.612Z,81.50
2017-11-12T22:24:17.209Z,81.70
2017-11-12T22:26:43.438Z,81.60
2017-11-12T22:29:13.163Z,81.20
2017-11-12T22:31:41.410Z,80.80
2017-11-12T22:34:08.052Z,79.40
2017-11-12T22:36:34.397Z,79.70
2017-11-12T22:39:00.835Z,80.40
2017-11-12T22:41:27.924Z,80.50
2017-11-12T22:43:54.990Z,80.60
2017-11-12T22:46:23.316Z,80.90
2017-11-12T22:48:50.508Z,80.50
2017-11-12T22:51:16.708Z,80.40
2017-11-12T22:53:44.309Z,80.30
2017-11-12T22:56:10.611Z,79.60
2017-11-12T22:58:36.860Z,80.00
2017-11-12T23:01:06.305Z,79.90
2017-11-12T23:03:34.138Z,79.60
2017-11-12T23:06:02.130Z,80.70
2017-11-12T23:08:29.919Z,80.10
2017-11-12T23:10:57.671Z,80.60
2017-11-12T23:13:25.383Z,80.40
2017-11-12T23:15:53.040Z,80.30
2017-11-12T23:18:19.266Z,79.60
2017-11-12T23:20:49.744Z,79.90
2017-11-12T23:23:16.995Z,79.80
2017-11-12T23:25:43.310Z,79.90
2017-11-12T23:28:10.472Z,79.60
2017-11-12T23:30:38.018Z,79.90
2017-11-12T23:33:07.025Z,80.10
2017-11-12T23:35:36.368Z,80.50
2017-11-12T23:38:05.163Z,80.80
2017-11-12T23:40:32.110Z,80.30
2017-11-12T23:45:29.076Z,79.10
2017-11-12T23:47:56.794Z,79.20
2017-11-12T23:50:23.449Z,79.60
2017-11-12T23:52:54.691Z,80.30
2017-11-12T23:55:21.514Z,80.40
2017-11-12T23:57:47.760Z,80.20
